createdAt,value
2019-03-25T00:00:27.255Z,6.90
2019-03-25T00:01:27.246Z,7.30
2019-03-25T00:02:27.235Z,6.90
2019-03-25T00:03:27.225Z,6.70
2019-03-25T00:04:27.228Z,7.00
2019-03-25T00:05:27.204Z,6.50
2019-03-25T00:06:27.192Z,6.60
2019-03-25T00:07:27.180Z,7.30
2019-03-25T00:08:27.176Z,6.70
2019-03-25T00:09:27.176Z,6.50
2019-03-25T00:10:27.147Z,7.20
2019-03-25T00:11:27.136Z,7.40
2019-03-25T00:12:27.127Z,6.80
2019-03-25T00:13:27.116Z,7.10
2019-03-25T00:14:27.120Z,6.70
2019-03-25T00:15:27.092Z,7.20
2019-03-25T00:16:27.082Z,6.90
2019-03-25T00:17:27.071Z,6.80
2019-03-25T00:18:27.060Z,7.00
2019-03-25T00:19:27.066Z,7.00
2019-03-25T00:20:27.042Z,7.40
2019-03-25T00:21:27.029Z,7.80
2019-03-25T00:22:27.018Z,7.10
2019-03-25T00:23:27.006Z,7.10
2019-03-25T00:24:37.917Z,7.10
2019-03-25T00:25:27.997Z,7.70
2019-03-25T00:26:26.971Z,7.20
2019-03-25T00:27:26.962Z,7.40
2019-03-25T00:28:26.953Z,7.10
2019-03-25T00:29:26.939Z,8.50
2019-03-25T00:30:26.945Z,7.40
2019-03-25T00:31:26.918Z,7.40
2019-03-25T00:32:26.907Z,7.30
2019-03-25T00:33:26.898Z,7.50
2019-03-25T00:34:26.889Z,7.60
2019-03-25T00:35:26.890Z,8.00
2019-03-25T00:36:26.863Z,7.20
2019-03-25T00:37:26.852Z,7.30
2019-03-25T00:38:26.841Z,7.60
2019-03-25T00:39:26.828Z,6.80
2019-03-25T00:40:26.833Z,6.80
2019-03-25T00:41:26.807Z,7.20
2019-03-25T00:42:26.795Z,6.90
2019-03-25T00:43:26.785Z,7.10
2019-03-25T00:44:26.774Z,7.30
2019-03-25T00:45:26.831Z,7.10
2019-03-25T00:46:26.754Z,7.40
2019-03-25T00:47:26.739Z,7.10
2019-03-25T00:48:26.729Z,8.00
2019-03-25T00:49:26.718Z,6.10
2019-03-25T00:50:26.722Z,7.80
2019-03-25T00:51:26.696Z,6.50
2019-03-25T00:52:26.686Z,7.40
2019-03-25T00:53:26.708Z,6.20
2019-03-25T00:54:26.664Z,6.40
2019-03-25T00:55:26.669Z,6.80
2019-03-25T00:56:26.645Z,6.60
2019-03-25T00:57:26.636Z,6.40
2019-03-25T00:58:26.620Z,6.60
2019-03-25T00:59:26.609Z,6.50
2019-03-25T01:00:26.623Z,6.60
2019-03-25T01:01:26.597Z,7.00
2019-03-25T01:02:26.578Z,6.40
2019-03-25T01:03:26.567Z,6.20
2019-03-25T01:04:26.557Z,6.40
2019-03-25T01:05:26.563Z,6.20
2019-03-25T01:06:26.535Z,5.90
2019-03-25T01:07:26.524Z,6.20
2019-03-25T01:08:26.512Z,6.90
2019-03-25T01:09:26.502Z,5.90
2019-03-25T01:10:26.508Z,6.20
2019-03-25T01:11:26.481Z,6.80
2019-03-25T01:12:26.469Z,6.50
2019-03-25T01:13:26.470Z,6.40
2019-03-25T01:14:26.451Z,6.40
2019-03-25T01:15:26.453Z,6.30
2019-03-25T01:16:26.428Z,6.50
2019-03-25T01:17:26.414Z,6.40
2019-03-25T01:18:26.404Z,6.40
2019-03-25T01:19:26.392Z,6.40
2019-03-25T01:20:26.452Z,6.40
2019-03-25T01:21:26.369Z,7.10
2019-03-25T01:22:26.358Z,6.50
2019-03-25T01:23:26.348Z,6.90
2019-03-25T01:24:26.339Z,6.90
2019-03-25T01:25:26.340Z,7.00
2019-03-25T01:26:26.315Z,7.00
2019-03-25T01:27:26.303Z,7.10
2019-03-25T01:28:26.295Z,6.50
2019-03-25T01:29:26.292Z,6.90
2019-03-25T01:30:26.290Z,7.10
2019-03-25T01:31:26.261Z,6.90
2019-03-25T01:32:26.253Z,6.90
2019-03-25T01:33:26.238Z,7.10
2019-03-25T01:34:26.227Z,7.00
2019-03-25T01:35:26.232Z,7.60
2019-03-25T01:36:26.206Z,7.20
2019-03-25T01:37:26.195Z,7.10
2019-03-25T01:38:26.184Z,7.20
2019-03-25T01:39:26.173Z,7.20
2019-03-25T01:40:26.181Z,6.90
2019-03-25T01:41:26.152Z,7.40
2019-03-25T01:42:26.140Z,7.00
2019-03-25T01:43:26.133Z,6.80
2019-03-25T01:44:26.118Z,7.30
2019-03-25T01:45:26.124Z,7.30
2019-03-25T01:46:26.097Z,6.60
2019-03-25T01:47:26.085Z,7.40
2019-03-25T01:48:26.074Z,7.20
2019-03-25T01:49:26.063Z,7.00
2019-03-25T01:50:26.069Z,7.50
2019-03-25T01:51:26.042Z,7.00
2019-03-25T01:52:26.031Z,6.90
2019-03-25T01:53:26.022Z,7.50
2019-03-25T01:54:26.009Z,7.00
2019-03-25T01:55:26.013Z,7.50
2019-03-25T01:56:25.987Z,7.20
2019-03-25T01:57:25.979Z,7.40
2019-03-25T01:58:25.965Z,7.20
2019-03-25T01:59:26.004Z,7.30
2019-03-25T02:00:25.956Z,7.60
2019-03-25T02:01:25.930Z,7.30
2019-03-25T02:02:25.923Z,7.30
2019-03-25T02:03:25.911Z,8.20
2019-03-25T02:04:25.903Z,7.60
2019-03-25T02:05:25.903Z,8.10
2019-03-25T02:06:25.876Z,7.80
2019-03-25T02:07:25.867Z,8.00
2019-03-25T02:08:25.855Z,8.00
2019-03-25T02:09:25.843Z,8.10
2019-03-25T02:10:25.848Z,7.60
2019-03-25T02:11:25.820Z,7.90
2019-03-25T02:12:25.811Z,7.90
2019-03-25T02:13:25.798Z,7.90
2019-03-25T02:14:25.795Z,8.20
2019-03-25T02:15:25.790Z,8.70
2019-03-25T02:16:25.768Z,8.00
2019-03-25T02:17:25.759Z,8.10
2019-03-25T02:18:25.743Z,7.40
2019-03-25T02:19:25.731Z,7.90
2019-03-25T02:20:26.904Z,8.00
2019-03-25T02:21:25.722Z,8.30
2019-03-25T02:22:25.778Z,7.80
2019-03-25T02:23:25.694Z,7.70
2019-03-25T02:24:25.676Z,7.80
2019-03-25T02:25:26.059Z,8.00
2019-03-25T02:26:25.653Z,7.90
2019-03-25T02:27:25.642Z,8.10
2019-03-25T02:28:25.630Z,8.50
2019-03-25T02:29:25.620Z,8.00
2019-03-25T02:30:25.609Z,8.90
2019-03-25T02:31:25.612Z,9.10
2019-03-25T02:32:25.587Z,8.60
2019-03-25T02:33:25.575Z,8.10
2019-03-25T02:34:25.665Z,8.90
2019-03-25T02:35:25.553Z,9.10
2019-03-25T02:36:25.557Z,8.70
2019-03-25T02:37:25.529Z,9.60
2019-03-25T02:38:25.520Z,8.80
2019-03-25T02:39:25.541Z,9.10
2019-03-25T02:40:25.497Z,9.70
2019-03-25T02:41:25.513Z,10.20
2019-03-25T02:42:25.480Z,9.60
2019-03-25T02:43:25.464Z,9.00
2019-03-25T02:44:25.455Z,9.40
2019-03-25T02:45:25.446Z,10.30
2019-03-25T02:46:25.452Z,10.00
2019-03-25T02:47:25.430Z,8.90
2019-03-25T02:48:25.412Z,8.90
2019-03-25T02:49:25.399Z,9.10
2019-03-25T02:50:25.444Z,9.30
2019-03-25T02:51:25.494Z,8.60
2019-03-25T02:52:25.361Z,9.60
2019-03-25T02:53:25.352Z,8.80
2019-03-25T02:54:25.338Z,8.70
2019-03-25T02:55:40.077Z,10.00
2019-03-25T02:56:26.331Z,10.80
2019-03-25T02:57:25.313Z,9.30
2019-03-25T02:58:25.297Z,10.00
2019-03-25T02:59:25.290Z,9.40
2019-03-25T03:00:25.275Z,9.30
2019-03-25T03:01:25.275Z,10.50
2019-03-25T03:02:25.255Z,9.70
2019-03-25T03:03:25.243Z,10.20
2019-03-25T03:04:25.235Z,9.30
2019-03-25T03:05:25.223Z,10.50
2019-03-25T03:06:25.256Z,10.20
2019-03-25T03:07:25.195Z,9.80
2019-03-25T03:08:25.183Z,9.50
2019-03-25T03:09:25.183Z,10.70
2019-03-25T03:10:25.162Z,10.10
2019-03-25T03:11:25.151Z,10.80
2019-03-25T03:12:25.182Z,10.80
2019-03-25T03:13:25.149Z,10.30
2019-03-25T03:14:25.116Z,9.90
2019-03-25T03:15:25.113Z,10.60
2019-03-25T03:16:25.105Z,9.80
2019-03-25T03:17:25.107Z,10.40
2019-03-25T03:18:25.075Z,10.30
2019-03-25T03:19:25.068Z,9.70
2019-03-25T03:20:25.048Z,10.00
2019-03-25T03:21:25.037Z,9.90
2019-03-25T03:22:25.042Z,10.00
2019-03-25T03:23:25.015Z,9.40
2019-03-25T03:24:25.004Z,10.20
2019-03-25T03:25:24.993Z,9.40
2019-03-25T03:26:24.982Z,9.80
2019-03-25T03:27:24.984Z,9.70
2019-03-25T03:28:24.959Z,9.90
2019-03-25T03:29:24.953Z,9.60
2019-03-25T03:30:24.937Z,10.10
2019-03-25T03:31:24.927Z,10.30
2019-03-25T03:32:24.935Z,10.00
2019-03-25T03:33:25.068Z,9.70
2019-03-25T03:34:24.893Z,9.70
2019-03-25T03:35:24.881Z,9.70
2019-03-25T03:36:24.876Z,9.80
2019-03-25T03:37:24.875Z,10.00
2019-03-25T03:38:24.846Z,10.00
2019-03-25T03:39:24.835Z,10.10
2019-03-25T03:40:24.888Z,9.40
2019-03-25T03:41:24.815Z,10.40
2019-03-25T03:42:24.819Z,10.20
2019-03-25T03:43:24.792Z,9.50
2019-03-25T03:44:24.781Z,9.40
2019-03-25T03:45:24.770Z,9.30
2019-03-25T03:46:24.757Z,9.70
2019-03-25T03:47:24.769Z,9.90
2019-03-25T03:48:24.736Z,9.90
2019-03-25T03:49:24.730Z,10.30
2019-03-25T03:50:24.712Z,9.70
2019-03-25T03:51:24.710Z,9.80
2019-03-25T03:52:24.709Z,10.10
2019-03-25T03:53:24.705Z,10.80
2019-03-25T03:54:24.669Z,9.80
2019-03-25T03:55:24.665Z,9.60
2019-03-25T03:56:24.646Z,9.70
2019-03-25T03:57:24.634Z,10.30
2019-03-25T03:58:24.644Z,10.50
2019-03-25T03:59:24.618Z,10.30
2019-03-25T04:00:24.599Z,10.60
2019-03-25T04:01:24.594Z,9.40
2019-03-25T04:02:24.577Z,9.50
2019-03-25T04:03:24.581Z,9.70
2019-03-25T04:04:24.556Z,10.10
2019-03-25T04:05:24.545Z,10.20
2019-03-25T04:06:24.532Z,9.60
2019-03-25T04:07:24.523Z,9.10
2019-03-25T04:08:24.530Z,9.90
2019-03-25T04:09:24.500Z,8.80
2019-03-25T04:10:24.489Z,9.70
2019-03-25T04:11:24.485Z,8.40
2019-03-25T04:12:24.471Z,8.90
2019-03-25T04:13:24.471Z,8.80
2019-03-25T04:14:24.444Z,8.90
2019-03-25T04:15:24.434Z,8.80
2019-03-25T04:16:24.421Z,10.20
2019-03-25T04:17:24.412Z,8.20
2019-03-25T04:18:24.419Z,8.70
2019-03-25T04:19:24.389Z,8.60
2019-03-25T04:20:24.377Z,8.80
2019-03-25T04:21:24.365Z,8.10
2019-03-25T04:22:24.355Z,8.40
2019-03-25T04:23:24.360Z,8.00
2019-03-25T04:24:24.331Z,8.50
2019-03-25T04:25:24.320Z,8.20
2019-03-25T04:26:28.921Z,8.10
2019-03-25T04:27:25.300Z,9.00
2019-03-25T04:28:24.301Z,8.90
2019-03-25T04:29:24.276Z,8.70
2019-03-25T04:30:24.264Z,7.90
2019-03-25T04:31:24.254Z,8.30
2019-03-25T04:32:24.252Z,7.50
2019-03-25T04:33:24.248Z,7.70
2019-03-25T04:34:24.224Z,7.20
2019-03-25T04:35:24.212Z,7.30
2019-03-25T04:36:24.197Z,7.80
2019-03-25T04:37:24.185Z,7.10
2019-03-25T04:38:24.194Z,6.90
2019-03-25T04:39:24.167Z,7.50
2019-03-25T04:40:24.154Z,7.20
2019-03-25T04:41:24.142Z,7.40
2019-03-25T04:42:24.130Z,6.30
2019-03-25T04:43:24.135Z,6.50
2019-03-25T04:44:24.107Z,6.50
2019-03-25T04:45:24.096Z,6.30
2019-03-25T04:46:24.086Z,6.50
2019-03-25T04:47:24.077Z,6.40
2019-03-25T04:48:24.078Z,6.40
2019-03-25T04:49:24.051Z,6.30
2019-03-25T04:50:24.040Z,6.30
2019-03-25T04:51:24.030Z,7.00
2019-03-25T04:52:24.017Z,5.90
2019-03-25T04:53:24.020Z,5.90
2019-03-25T04:54:23.998Z,6.00
2019-03-25T04:55:23.983Z,5.70
2019-03-25T04:56:23.975Z,5.70
2019-03-25T04:57:23.968Z,6.10
2019-03-25T04:58:23.966Z,5.80
2019-03-25T04:59:23.942Z,5.90
2019-03-25T05:00:23.930Z,5.80
2019-03-25T05:01:23.919Z,5.90
2019-03-25T05:02:23.907Z,5.80
2019-03-25T05:03:23.930Z,6.10
2019-03-25T05:04:23.885Z,5.40
2019-03-25T05:05:23.875Z,6.00
2019-03-25T05:06:23.862Z,6.80
2019-03-25T05:07:23.853Z,6.60
2019-03-25T05:08:23.839Z,6.10
2019-03-25T05:09:23.844Z,6.50
2019-03-25T05:10:23.820Z,5.60
2019-03-25T05:11:30.505Z,5.50
2019-03-25T05:12:24.798Z,5.50
2019-03-25T05:13:23.785Z,5.50
2019-03-25T05:14:23.788Z,5.90
2019-03-25T05:15:23.767Z,7.00
2019-03-25T05:16:23.753Z,8.00
2019-03-25T05:17:23.740Z,8.90
2019-03-25T05:18:23.751Z,8.90
2019-03-25T05:19:23.734Z,10.10
2019-03-25T05:20:23.708Z,9.60
2019-03-25T05:21:23.695Z,9.00
2019-03-25T05:22:23.686Z,9.90
2019-03-25T05:23:23.673Z,8.90
2019-03-25T05:24:23.677Z,9.80
2019-03-25T05:25:23.653Z,8.40
2019-03-25T05:26:23.640Z,9.40
2019-03-25T05:27:23.632Z,10.60
2019-03-25T05:28:23.618Z,8.50
2019-03-25T05:29:23.623Z,9.20
2019-03-25T05:30:23.596Z,13.70
2019-03-25T05:31:23.589Z,9.40
2019-03-25T05:32:23.573Z,6.90
2019-03-25T05:33:23.562Z,8.20
2019-03-25T05:34:23.566Z,7.20
2019-03-25T05:35:23.540Z,7.80
2019-03-25T05:36:23.531Z,7.10
2019-03-25T05:37:23.519Z,6.50
2019-03-25T05:38:23.506Z,6.60
2019-03-25T05:39:23.513Z,6.90
2019-03-25T05:40:23.488Z,7.30
2019-03-25T05:41:23.482Z,8.20
2019-03-25T05:42:23.462Z,7.90
2019-03-25T05:43:23.469Z,8.30
2019-03-25T05:44:23.454Z,9.00
2019-03-25T05:45:23.428Z,9.40
2019-03-25T05:46:23.417Z,9.70
2019-03-25T05:47:23.412Z,9.40
2019-03-25T05:48:23.397Z,9.10
2019-03-25T05:49:23.400Z,9.10
2019-03-25T05:50:23.373Z,9.20
2019-03-25T05:51:23.363Z,9.00
2019-03-25T05:52:23.350Z,12.40
2019-03-25T05:53:23.345Z,10.50
2019-03-25T05:54:23.363Z,10.00
2019-03-25T05:55:23.319Z,11.90
2019-03-25T05:56:23.308Z,9.40
2019-03-25T05:57:23.297Z,10.20
2019-03-25T05:58:23.285Z,11.40
2019-03-25T05:59:23.272Z,10.40
2019-03-25T06:00:23.277Z,10.50
2019-03-25T06:01:23.251Z,10.50
2019-03-25T06:02:23.240Z,9.20
2019-03-25T06:03:23.229Z,11.70
2019-03-25T06:04:23.225Z,10.50
2019-03-25T06:05:23.221Z,10.00
2019-03-25T06:06:23.200Z,10.10
2019-03-25T06:07:23.184Z,9.70
2019-03-25T06:08:23.181Z,9.90
2019-03-25T06:09:23.178Z,10.40
2019-03-25T06:10:23.167Z,8.70
2019-03-25T06:11:23.143Z,9.10
2019-03-25T06:12:23.136Z,9.20
2019-03-25T06:13:23.131Z,9.10
2019-03-25T06:14:23.108Z,8.50
2019-03-25T06:15:23.111Z,8.40
2019-03-25T06:16:23.085Z,8.70
2019-03-25T06:17:23.084Z,10.20
2019-03-25T06:18:23.064Z,8.40
2019-03-25T06:19:23.051Z,9.40
2019-03-25T06:20:23.055Z,7.80
2019-03-25T06:21:23.028Z,9.80
2019-03-25T06:22:23.018Z,8.80
2019-03-25T06:23:23.008Z,8.20
2019-03-25T06:24:22.996Z,7.00
2019-03-25T06:25:23.007Z,7.70
2019-03-25T06:26:22.974Z,8.20
2019-03-25T06:27:22.961Z,8.40
2019-03-25T06:28:22.951Z,7.60
2019-03-25T06:29:22.946Z,7.60
2019-03-25T06:30:22.946Z,8.40
2019-03-25T06:31:22.917Z,7.40
2019-03-25T06:32:22.906Z,9.90
2019-03-25T06:33:22.894Z,9.10
2019-03-25T06:34:22.884Z,9.30
2019-03-25T06:35:22.888Z,10.20
2019-03-25T06:36:22.861Z,8.80
2019-03-25T06:37:22.849Z,8.20
2019-03-25T06:38:22.839Z,7.80
2019-03-25T06:39:22.829Z,9.90
2019-03-25T06:40:22.837Z,7.70
2019-03-25T06:41:22.805Z,9.10
2019-03-25T06:42:22.793Z,8.40
2019-03-25T06:43:22.783Z,8.80
2019-03-25T06:44:22.771Z,9.40
2019-03-25T06:45:22.781Z,8.80
2019-03-25T06:46:22.750Z,9.60
2019-03-25T06:47:22.778Z,12.00
2019-03-25T06:48:22.730Z,10.60
2019-03-25T06:49:22.716Z,11.20
2019-03-25T06:50:22.721Z,10.50
2019-03-25T06:51:22.695Z,10.20
2019-03-25T06:52:22.683Z,10.10
2019-03-25T06:53:22.671Z,11.10
2019-03-25T06:54:22.662Z,10.40
2019-03-25T06:55:22.664Z,10.80
2019-03-25T06:56:22.638Z,10.50
2019-03-25T06:57:25.790Z,12.40
2019-03-25T06:58:22.618Z,10.10
2019-03-25T06:59:22.605Z,9.80
2019-03-25T07:00:22.612Z,8.90
2019-03-25T07:01:22.581Z,11.20
2019-03-25T07:02:22.570Z,12.90
2019-03-25T07:03:22.562Z,9.40
2019-03-25T07:04:22.553Z,12.30
2019-03-25T07:05:22.555Z,8.10
2019-03-25T07:06:22.527Z,7.90
2019-03-25T07:07:22.517Z,8.00
2019-03-25T07:08:22.525Z,8.30
2019-03-25T07:09:22.496Z,9.20
2019-03-25T07:10:22.508Z,7.40
2019-03-25T07:11:22.474Z,8.60
2019-03-25T07:12:22.458Z,7.00
2019-03-25T07:13:22.459Z,6.80
2019-03-25T07:14:22.442Z,7.70
2019-03-25T07:15:22.454Z,8.40
2019-03-25T07:16:22.418Z,7.60
2019-03-25T07:17:22.404Z,8.50
2019-03-25T07:18:22.394Z,6.60
2019-03-25T07:19:22.388Z,6.90
2019-03-25T07:20:22.391Z,7.60
2019-03-25T07:21:22.367Z,6.80
2019-03-25T07:22:22.353Z,6.30
2019-03-25T07:23:22.337Z,7.30
2019-03-25T07:24:22.325Z,7.30
2019-03-25T07:25:22.355Z,7.40
2019-03-25T07:26:22.330Z,7.90
2019-03-25T07:27:22.292Z,7.80
2019-03-25T07:28:22.280Z,6.90
2019-03-25T07:29:22.272Z,6.70
2019-03-25T07:30:22.278Z,6.50
2019-03-25T07:31:22.251Z,5.70
2019-03-25T07:32:22.237Z,6.60
2019-03-25T07:33:22.226Z,6.70
2019-03-25T07:34:22.217Z,6.50
2019-03-25T07:35:22.520Z,6.10
2019-03-25T07:36:22.193Z,6.50
2019-03-25T07:37:23.717Z,5.80
2019-03-25T07:38:22.172Z,6.90
2019-03-25T07:39:22.158Z,5.70
2019-03-25T07:40:22.165Z,6.90
2019-03-25T07:41:22.137Z,5.70
2019-03-25T07:42:22.125Z,5.80
2019-03-25T07:43:22.123Z,6.80
2019-03-25T07:44:22.106Z,5.50
2019-03-25T07:45:22.111Z,5.40
2019-03-25T07:46:22.085Z,5.60
2019-03-25T07:47:22.070Z,5.80
2019-03-25T07:48:22.059Z,6.50
2019-03-25T07:49:22.051Z,6.80
2019-03-25T07:50:22.053Z,7.00
2019-03-25T07:51:22.027Z,5.40
2019-03-25T07:52:22.018Z,5.50
2019-03-25T07:53:22.004Z,5.20
2019-03-25T07:54:22.002Z,5.60
2019-03-25T07:55:22.000Z,5.40
2019-03-25T07:56:21.972Z,5.40
2019-03-25T07:57:21.961Z,5.90
2019-03-25T07:58:21.949Z,5.60
2019-03-25T07:59:21.938Z,5.20
2019-03-25T08:00:21.929Z,5.50
2019-03-25T08:01:21.935Z,4.70
2019-03-25T08:02:21.908Z,6.00
2019-03-25T08:03:21.905Z,5.00
2019-03-25T08:04:21.885Z,5.20
2019-03-25T08:05:21.873Z,5.70
2019-03-25T08:06:21.877Z,6.60
2019-03-25T08:07:21.852Z,4.70
2019-03-25T08:08:21.840Z,4.80
2019-03-25T08:09:21.899Z,8.10
2019-03-25T08:10:21.842Z,5.50
2019-03-25T08:11:21.844Z,5.60
2019-03-25T08:12:21.800Z,4.80
2019-03-25T08:13:21.899Z,5.30
2019-03-25T08:14:21.804Z,5.00
2019-03-25T08:15:21.766Z,4.90
2019-03-25T08:16:21.780Z,4.70
2019-03-25T08:17:21.749Z,4.90
2019-03-25T08:18:21.732Z,4.80
2019-03-25T08:19:21.722Z,4.80
2019-03-25T08:20:21.717Z,4.50
2019-03-25T08:21:21.716Z,5.00
2019-03-25T08:22:21.689Z,4.80
2019-03-25T08:23:21.677Z,5.00
2019-03-25T08:24:21.668Z,5.20
2019-03-25T08:25:21.660Z,4.60
2019-03-25T08:26:21.659Z,4.70
2019-03-25T08:27:21.635Z,4.90
2019-03-25T08:28:21.621Z,4.70
2019-03-25T08:29:21.611Z,4.80
2019-03-25T08:30:21.600Z,4.70
2019-03-25T08:31:21.603Z,4.90
2019-03-25T08:32:21.580Z,5.50
2019-03-25T08:33:21.575Z,4.60
2019-03-25T08:34:21.555Z,4.80
2019-03-25T08:35:21.546Z,4.70
2019-03-25T08:36:21.548Z,4.40
2019-03-25T08:37:21.522Z,4.50
2019-03-25T08:38:21.513Z,4.80
2019-03-25T08:39:21.506Z,4.70
2019-03-25T08:40:21.490Z,4.30
2019-03-25T08:41:21.493Z,4.80
2019-03-25T08:42:21.471Z,4.80
2019-03-25T08:43:21.459Z,4.70
2019-03-25T08:44:21.448Z,4.70
2019-03-25T08:45:21.436Z,4.70
2019-03-25T08:46:21.437Z,4.40
2019-03-25T08:47:21.414Z,4.40
2019-03-25T08:48:21.409Z,4.30
2019-03-25T08:49:21.390Z,4.90
2019-03-25T08:50:21.379Z,4.40
2019-03-25T08:51:21.381Z,4.20
2019-03-25T08:52:21.362Z,4.60
2019-03-25T08:53:21.345Z,4.50
2019-03-25T08:54:21.333Z,4.70
2019-03-25T08:55:21.323Z,4.50
2019-03-25T08:56:21.328Z,4.10
2019-03-25T08:57:21.301Z,4.30
2019-03-25T08:58:21.289Z,4.20
2019-03-25T08:59:21.279Z,4.20
2019-03-25T09:00:21.270Z,4.50
2019-03-25T09:01:21.273Z,4.20
2019-03-25T09:02:21.244Z,4.20
2019-03-25T09:03:21.232Z,4.80
2019-03-25T09:04:21.221Z,4.40
2019-03-25T09:05:21.213Z,4.20
2019-03-25T09:06:21.217Z,5.00
2019-03-25T09:07:21.188Z,4.70
2019-03-25T09:08:21.180Z,4.20
2019-03-25T09:09:21.167Z,4.00
2019-03-25T09:10:21.160Z,4.50
2019-03-25T09:11:21.162Z,4.70
2019-03-25T09:12:21.135Z,3.80
2019-03-25T09:13:21.123Z,4.20
2019-03-25T09:14:21.114Z,4.70
2019-03-25T09:15:21.102Z,4.30
2019-03-25T09:16:21.105Z,4.10
2019-03-25T09:17:21.083Z,4.50
2019-03-25T09:18:21.078Z,3.80
2019-03-25T09:19:21.058Z,4.90
2019-03-25T09:20:21.049Z,4.30
2019-03-25T09:21:21.054Z,4.20
2019-03-25T09:22:21.024Z,4.00
2019-03-25T09:23:21.014Z,3.50
2019-03-25T09:24:21.006Z,4.10
2019-03-25T09:25:20.997Z,4.10
2019-03-25T09:26:20.996Z,3.90
2019-03-25T09:27:20.976Z,4.60
2019-03-25T09:28:24.468Z,4.00
2019-03-25T09:29:20.949Z,4.30
2019-03-25T09:30:20.937Z,4.00
2019-03-25T09:31:20.943Z,5.00
2019-03-25T09:32:20.915Z,4.20
2019-03-25T09:33:20.907Z,4.10
2019-03-25T09:34:20.895Z,4.30
2019-03-25T09:35:20.883Z,4.30
2019-03-25T09:36:20.887Z,4.10
2019-03-25T09:37:20.862Z,4.40
2019-03-25T09:38:20.852Z,3.90
2019-03-25T09:39:20.841Z,4.00
2019-03-25T09:40:20.831Z,3.90
2019-03-25T09:41:20.836Z,4.00
2019-03-25T09:42:20.807Z,4.00
2019-03-25T09:43:20.798Z,4.00
2019-03-25T09:44:20.785Z,3.30
2019-03-25T09:45:20.780Z,3.90
2019-03-25T09:46:20.797Z,3.30
2019-03-25T09:47:20.760Z,3.80
2019-03-25T09:48:20.743Z,3.60
2019-03-25T09:49:20.735Z,3.90
2019-03-25T09:50:20.724Z,3.70
2019-03-25T09:51:20.710Z,3.70
2019-03-25T09:52:20.721Z,4.20
2019-03-25T09:53:20.689Z,4.10
2019-03-25T09:54:20.677Z,3.80
2019-03-25T09:55:20.667Z,3.50
2019-03-25T09:56:20.656Z,3.80
2019-03-25T09:57:20.660Z,3.70
2019-03-25T09:58:20.638Z,4.00
2019-03-25T09:59:20.623Z,3.50
2019-03-25T10:00:20.616Z,4.00
2019-03-25T10:01:20.599Z,3.80
2019-03-25T10:02:20.606Z,3.50
2019-03-25T10:03:20.582Z,3.90
2019-03-25T10:04:20.570Z,3.60
2019-03-25T10:05:20.564Z,3.60
2019-03-25T10:06:20.544Z,4.00
2019-03-25T10:07:20.550Z,3.60
2019-03-25T10:08:20.522Z,3.20
2019-03-25T10:09:20.511Z,3.50
2019-03-25T10:10:20.502Z,3.60
2019-03-25T10:11:20.491Z,3.80
2019-03-25T10:12:20.492Z,3.20
2019-03-25T10:13:20.475Z,3.20
2019-03-25T10:14:20.456Z,3.80
2019-03-25T10:15:20.446Z,3.50
2019-03-25T10:16:20.433Z,3.30
2019-03-25T10:17:20.434Z,4.80
2019-03-25T10:18:20.410Z,3.50
2019-03-25T10:19:20.399Z,3.40
2019-03-25T10:20:20.387Z,3.40
2019-03-25T10:21:20.375Z,3.20
2019-03-25T10:22:20.380Z,4.00
2019-03-25T10:23:20.353Z,3.30
2019-03-25T10:24:27.608Z,3.70
2019-03-25T10:25:21.329Z,4.10
2019-03-25T10:26:20.331Z,3.30
2019-03-25T10:27:20.324Z,3.50
2019-03-25T10:28:20.297Z,3.60
2019-03-25T10:29:20.284Z,3.30
2019-03-25T10:30:20.273Z,3.40
2019-03-25T10:31:20.262Z,3.30
2019-03-25T10:32:20.264Z,3.20
2019-03-25T10:33:20.239Z,3.00
2019-03-25T10:34:20.227Z,3.40
2019-03-25T10:35:20.215Z,3.20
2019-03-25T10:36:20.208Z,3.30
2019-03-25T10:37:20.208Z,3.20
2019-03-25T10:38:20.180Z,3.20
2019-03-25T10:39:20.168Z,3.70
2019-03-25T10:40:20.158Z,3.20
2019-03-25T10:41:20.147Z,3.30
2019-03-25T10:42:20.148Z,3.50
2019-03-25T10:43:20.124Z,3.40
2019-03-25T10:44:20.112Z,3.20
2019-03-25T10:45:20.100Z,3.20
2019-03-25T10:46:20.089Z,3.40
2019-03-25T10:47:20.096Z,3.70
2019-03-25T10:48:20.067Z,3.50
2019-03-25T10:49:20.057Z,3.30
2019-03-25T10:50:20.046Z,3.00
2019-03-25T10:51:20.035Z,3.40
2019-03-25T10:52:20.038Z,2.80
2019-03-25T10:53:20.012Z,3.40
2019-03-25T10:54:20.035Z,2.80
2019-03-25T10:55:19.993Z,3.10
2019-03-25T10:56:19.986Z,3.20
2019-03-25T10:57:19.984Z,3.70
2019-03-25T10:58:19.958Z,3.00
2019-03-25T10:59:19.945Z,3.30
2019-03-25T11:00:19.937Z,3.30
2019-03-25T11:01:19.923Z,3.50
2019-03-25T11:02:19.926Z,3.20
2019-03-25T11:03:19.901Z,3.20
2019-03-25T11:04:19.889Z,2.90
2019-03-25T11:05:19.882Z,3.60
2019-03-25T11:06:19.872Z,2.90
2019-03-25T11:07:19.902Z,3.10
2019-03-25T11:08:19.853Z,2.60
2019-03-25T11:09:19.836Z,3.20
2019-03-25T11:10:19.825Z,2.70
2019-03-25T11:11:19.817Z,2.70
2019-03-25T11:12:19.817Z,2.70
2019-03-25T11:13:19.792Z,3.00
2019-03-25T11:14:19.782Z,3.50
2019-03-25T11:15:19.774Z,4.00
2019-03-25T11:16:19.759Z,3.00
2019-03-25T11:17:19.766Z,3.30
2019-03-25T11:18:19.736Z,3.30
2019-03-25T11:19:19.725Z,3.60
2019-03-25T11:20:19.715Z,3.00
2019-03-25T11:21:19.708Z,3.40
2019-03-25T11:22:19.706Z,3.10
2019-03-25T11:23:19.690Z,3.20
2019-03-25T11:24:19.675Z,3.50
2019-03-25T11:25:19.660Z,2.90
2019-03-25T11:26:19.647Z,2.90
2019-03-25T11:27:19.653Z,3.90
2019-03-25T11:28:19.631Z,2.60
2019-03-25T11:29:19.616Z,3.30
2019-03-25T11:30:19.608Z,2.50
2019-03-25T11:31:19.595Z,3.10
2019-03-25T11:32:19.598Z,3.00
2019-03-25T11:33:19.570Z,3.30
2019-03-25T11:34:19.560Z,4.10
2019-03-25T11:35:19.550Z,2.60
2019-03-25T11:36:19.537Z,2.60
2019-03-25T11:37:19.547Z,2.70
2019-03-25T11:38:19.515Z,2.80
2019-03-25T11:39:19.503Z,2.80
2019-03-25T11:40:19.494Z,2.90
2019-03-25T11:41:19.483Z,2.60
2019-03-25T11:42:19.488Z,2.80
2019-03-25T11:43:19.466Z,2.30
2019-03-25T11:44:19.451Z,2.50
2019-03-25T11:45:19.438Z,2.50
2019-03-25T11:46:19.429Z,2.60
2019-03-25T11:47:19.437Z,2.40
2019-03-25T11:48:19.405Z,3.20
2019-03-25T11:49:19.397Z,2.60
2019-03-25T11:50:19.383Z,2.90
2019-03-25T11:51:19.380Z,2.20
2019-03-25T11:52:19.374Z,2.60
2019-03-25T11:53:19.350Z,2.50
2019-03-25T11:54:19.338Z,2.90
2019-03-25T11:55:19.328Z,2.30
2019-03-25T11:56:19.327Z,4.20
2019-03-25T11:57:19.323Z,2.30
2019-03-25T11:58:19.295Z,2.40
2019-03-25T11:59:19.284Z,3.20
2019-03-25T12:00:19.272Z,3.30
2019-03-25T12:01:19.260Z,2.80
2019-03-25T12:02:19.280Z,3.00
2019-03-25T12:03:19.239Z,2.50
2019-03-25T12:04:19.230Z,2.80
2019-03-25T12:05:19.218Z,1.90
2019-03-25T12:06:19.207Z,2.30
2019-03-25T12:07:19.195Z,2.50
2019-03-25T12:08:19.205Z,2.00
2019-03-25T12:09:19.173Z,2.50
2019-03-25T12:10:19.165Z,1.90
2019-03-25T12:11:19.153Z,2.70
2019-03-25T12:12:19.145Z,3.30
2019-03-25T12:13:19.146Z,2.90
2019-03-25T12:14:19.121Z,2.40
2019-03-25T12:15:19.106Z,2.70
2019-03-25T12:16:19.098Z,2.90
2019-03-25T12:17:19.083Z,2.50
2019-03-25T12:18:19.086Z,2.60
2019-03-25T12:19:19.066Z,2.90
2019-03-25T12:20:19.052Z,2.20
2019-03-25T12:21:19.039Z,2.80
2019-03-25T12:22:19.029Z,2.90
2019-03-25T12:23:26.252Z,3.70
2019-03-25T12:24:20.007Z,2.60
2019-03-25T12:25:18.995Z,3.50
2019-03-25T12:26:18.985Z,3.50
2019-03-25T12:27:18.985Z,2.90
2019-03-25T12:28:20.713Z,2.50
2019-03-25T12:29:29.243Z,3.20
2019-03-25T12:30:19.938Z,3.00
2019-03-25T12:31:18.930Z,2.50
2019-03-25T12:32:18.918Z,2.70
2019-03-25T12:33:18.922Z,3.10
2019-03-25T12:34:18.962Z,3.10
2019-03-25T12:35:18.917Z,2.60
2019-03-25T12:36:18.889Z,2.20
2019-03-25T12:37:18.878Z,2.70
2019-03-25T12:38:18.873Z,2.70
2019-03-25T12:39:18.851Z,3.30
2019-03-25T12:40:18.830Z,2.90
2019-03-25T12:41:18.823Z,4.90
2019-03-25T12:42:18.817Z,3.30
2019-03-25T12:43:18.815Z,2.40
2019-03-25T12:44:18.790Z,3.30
2019-03-25T12:45:18.777Z,3.30
2019-03-25T12:46:18.776Z,2.80
2019-03-25T12:47:18.752Z,3.20
2019-03-25T12:48:18.760Z,2.80
2019-03-25T12:49:18.730Z,2.70
2019-03-25T12:50:18.721Z,3.10
2019-03-25T12:51:18.708Z,3.10
2019-03-25T12:52:18.697Z,2.70
2019-03-25T12:53:18.701Z,2.90
2019-03-25T12:54:18.678Z,3.00
2019-03-25T12:55:18.665Z,3.20
2019-03-25T12:56:18.654Z,4.40
2019-03-25T12:57:18.644Z,3.00
2019-03-25T12:58:18.648Z,3.10
2019-03-25T12:59:18.624Z,2.60
2019-03-25T13:00:18.613Z,3.30
2019-03-25T13:01:18.603Z,2.60
2019-03-25T13:02:18.592Z,2.70
2019-03-25T13:03:18.595Z,3.10
2019-03-25T13:04:18.568Z,2.20
2019-03-25T13:05:18.562Z,3.20
2019-03-25T13:06:18.547Z,3.70
2019-03-25T13:07:18.538Z,3.30
2019-03-25T13:08:18.542Z,3.00
2019-03-25T13:09:18.518Z,3.00
2019-03-25T13:10:18.505Z,3.10
2019-03-25T13:11:18.493Z,3.40
2019-03-25T13:12:18.484Z,2.60
2019-03-25T13:13:18.489Z,2.50
2019-03-25T13:14:18.464Z,3.80
2019-03-25T13:15:18.452Z,2.90
2019-03-25T13:16:18.442Z,3.10